sensor_id;sensor_type;location;lat;lon;timestamp;temperature;humidity
44170;DHT22;29836;52.286;9.576;2023-04-03T00:01:13;-1.20;99.90
44170;DHT22;29836;52.286;9.576;2023-04-03T00:03:38;-1.30;99.90
44170;DHT22;29836;52.286;9.576;2023-04-03T00:06:04;-1.30;99.90
44170;DHT22;29836;52.286;9.576;2023-04-03T00:08:32;-1.30;99.90
44170;DHT22;29836;52.286;9.576;2023-04-03T00:10:58;-1.30;99.90
44170;DHT22;29836;52.286;9.576;2023-04-03T00:13:24;-1.30;99.90
44170;DHT22;29836;52.286;9.576;2023-04-03T00:15:50;-1.30;99.90
44170;DHT22;29836;52.286;9.576;2023-04-03T00:18:16;-1.30;99.90
44170;DHT22;29836;52.286;9.576;2023-04-03T00:20:42;-1.30;99.90
44170;DHT22;29836;52.286;9.576;2023-04-03T00:23:07;-1.30;99.90
44170;DHT22;29836;52.286;9.576;2023-04-03T00:25:33;-1.30;99.90
44170;DHT22;29836;52.286;9.576;2023-04-03T00:27:59;-1.20;99.90
44170;DHT22;29836;52.286;9.576;2023-04-03T00:30:25;-1.20;99.90
44170;DHT22;29836;52.286;9.576;2023-04-03T00:32:51;-1.20;99.90
44170;DHT22;29836;52.286;9.576;2023-04-03T00:35:18;-1.20;99.90
44170;DHT22;29836;52.286;9.576;2023-04-03T00:37:45;-1.40;99.90
44170;DHT22;29836;52.286;9.576;2023-04-03T00:40:12;-1.50;99.90
44170;DHT22;29836;52.286;9.576;2023-04-03T00:42:40;-1.60;99.90
44170;DHT22;29836;52.286;9.576;2023-04-03T00:47:32;-1.50;99.90
44170;DHT22;29836;52.286;9.576;2023-04-03T00:49:58;-1.60;99.90
44170;DHT22;29836;52.286;9.576;2023-04-03T00:52:27;-1.70;99.90
44170;DHT22;29836;52.286;9.576;2023-04-03T00:55:00;-1.60;99.90
44170;DHT22;29836;52.286;9.576;2023-04-03T00:57:29;-1.60;99.90
44170;DHT22;29836;52.286;9.576;2023-04-03T00:59:59;-1.60;99.90
44170;DHT22;29836;52.286;9.576;2023-04-03T01:02:27;-1.50;99.90
44170;DHT22;29836;52.286;9.576;2023-04-03T01:04:52;-1.50;99.90
44170;DHT22;29836;52.286;9.576;2023-04-03T01:07:21;-1.40;99.90
44170;DHT22;29836;52.286;9.576;2023-04-03T01:09:48;-1.50;99.90
44170;DHT22;29836;52.286;9.576;2023-04-03T01:12:25;-1.50;99.90
44170;DHT22;29836;52.286;9.576;2023-04-03T01:15:09;-1.40;99.90
44170;DHT22;29836;52.286;9.576;2023-04-03T01:25:35;-1.60;99.90
44170;DHT22;29836;52.286;9.576;2023-04-03T01:28:03;-1.70;99.90
44170;DHT22;29836;52.286;9.576;2023-04-03T01:30:37;-1.70;99.90
44170;DHT22;29836;52.286;9.576;2023-04-03T01:33:04;-1.70;99.90
44170;DHT22;29836;52.286;9.576;2023-04-03T01:35:30;-1.60;99.90
44170;DHT22;29836;52.286;9.576;2023-04-03T01:37:56;-1.60;99.90
44170;DHT22;29836;52.286;9.576;2023-04-03T01:40:21;-1.60;99.90
44170;DHT22;29836;52.286;9.576;2023-04-03T01:42:47;-1.70;99.90
44170;DHT22;29836;52.286;9.576;2023-04-03T01:45:12;-1.70;99.90
44170;DHT22;29836;52.286;9.576;2023-04-03T01:47:38;-1.60;99.90
44170;DHT22;29836;52.286;9.576;2023-04-03T01:50:04;-1.60;99.90
44170;DHT22;29836;52.286;9.576;2023-04-03T01:52:29;-1.60;99.90
44170;DHT22;29836;52.286;9.576;2023-04-03T01:54:55;-1.70;99.90
44170;DHT22;29836;52.286;9.576;2023-04-03T01:57:21;-1.70;99.90
44170;DHT22;29836;52.286;9.576;2023-04-03T01:59:46;-1.70;99.90
44170;DHT22;29836;52.286;9.576;2023-04-03T02:02:12;-1.80;99.90
44170;DHT22;29836;52.286;9.576;2023-04-03T02:04:40;-2.00;99.90
44170;DHT22;29836;52.286;9.576;2023-04-03T02:07:05;-2.10;99.90
44170;DHT22;29836;52.286;9.576;2023-04-03T02:09:31;-2.30;99.90
44170;DHT22;29836;52.286;9.576;2023-04-03T02:11:56;-2.40;99.90
44170;DHT22;29836;52.286;9.576;2023-04-03T02:14:22;-2.50;99.90
44170;DHT22;29836;52.286;9.576;2023-04-03T02:16:49;-2.60;99.90
44170;DHT22;29836;52.286;9.576;2023-04-03T02:19:15;-2.50;99.90
44170;DHT22;29836;52.286;9.576;2023-04-03T02:21:40;-2.40;99.90
44170;DHT22;29836;52.286;9.576;2023-04-03T02:24:06;-2.40;99.90
44170;DHT22;29836;52.286;9.576;2023-04-03T02:26:32;-2.30;99.90
44170;DHT22;29836;52.286;9.576;2023-04-03T02:28:57;-2.30;99.90
44170;DHT22;29836;52.286;9.576;2023-04-03T02:31:23;-2.40;99.90
44170;DHT22;29836;52.286;9.576;2023-04-03T02:33:49;-2.30;99.90
44170;DHT22;29836;52.286;9.576;2023-04-03T02:36:15;-2.30;99.90
44170;DHT22;29836;52.286;9.576;2023-04-03T02:38:41;-2.30;99.90
44170;DHT22;29836;52.286;9.576;2023-04-03T02:41:10;-2.30;99.90
44170;DHT22;29836;52.286;9.576;2023-04-03T02:43:36;-2.30;99.90
44170;DHT22;29836;52.286;9.576;2023-04-03T02:46:02;-2.30;99.90
44170;DHT22;29836;52.286;9.576;2023-04-03T02:48:28;-2.30;99.90
44170;DHT22;29836;52.286;9.576;2023-04-03T02:50:54;-2.30;99.90
44170;DHT22;29836;52.286;9.576;2023-04-03T02:53:19;-2.30;99.90
44170;DHT22;29836;52.286;9.576;2023-04-03T02:55:45;-2.30;99.90
44170;DHT22;29836;52.286;9.576;2023-04-03T02:58:11;-2.40;99.90
44170;DHT22;29836;52.286;9.576;2023-04-03T03:00:37;-2.50;99.90
44170;DHT22;29836;52.286;9.576;2023-04-03T03:03:02;-2.50;99.90
44170;DHT22;29836;52.286;9.576;2023-04-03T03:05:28;-2.60;99.90
44170;DHT22;29836;52.286;9.576;2023-04-03T03:07:54;-2.60;99.90
44170;DHT22;29836;52.286;9.576;2023-04-03T03:10:20;-2.60;99.90
44170;DHT22;29836;52.286;9.576;2023-04-03T03:12:45;-2.60;99.90
44170;DHT22;29836;52.286;9.576;2023-04-03T03:15:11;-2.60;99.90
44170;DHT22;29836;52.286;9.576;2023-04-03T03:17:37;-2.60;99.90
44170;DHT22;29836;52.286;9.576;2023-04-03T03:20:05;-2.60;99.90
44170;DHT22;29836;52.286;9.576;2023-04-03T03:22:31;-2.60;99.90
44170;DHT22;29836;52.286;9.576;2023-04-03T03:24:56;-2.60;99.90
44170;DHT22;29836;52.286;9.576;2023-04-03T03:27:22;-2.50;99.90
44170;DHT22;29836;52.286;9.576;2023-04-03T03:29:47;-2.50;99.90
44170;DHT22;29836;52.286;9.576;2023-04-03T03:32:13;-2.60;99.90
44170;DHT22;29836;52.286;9.576;2023-04-03T03:34:39;-2.70;99.90
44170;DHT22;29836;52.286;9.576;2023-04-03T03:37:04;-3.00;99.90
44170;DHT22;29836;52.286;9.576;2023-04-03T03:39:30;-3.30;99.90
44170;DHT22;29836;52.286;9.576;2023-04-03T03:41:55;-3.40;99.90
44170;DHT22;29836;52.286;9.576;2023-04-03T03:44:22;-3.50;99.90
44170;DHT22;29836;52.286;9.576;2023-04-03T03:46:47;-3.70;99.90
44170;DHT22;29836;52.286;9.576;2023-04-03T03:49:13;-3.80;99.90
44170;DHT22;29836;52.286;9.576;2023-04-03T03:51:39;-3.80;99.90
44170;DHT22;29836;52.286;9.576;2023-04-03T03:54:05;-3.90;99.90
44170;DHT22;29836;52.286;9.576;2023-04-03T03:56:31;-4.00;99.90
44170;DHT22;29836;52.286;9.576;2023-04-03T03:58:57;-4.00;99.90
44170;DHT22;29836;52.286;9.576;2023-04-03T04:01:23;-4.00;99.90
44170;DHT22;29836;52.286;9.576;2023-04-03T04:03:49;-4.10;99.90
44170;DHT22;29836;52.286;9.576;2023-04-03T04:06:15;-4.10;99.90
44170;DHT22;29836;52.286;9.576;2023-04-03T04:08:41;-4.10;99.90
44170;DHT22;29836;52.286;9.576;2023-04-03T04:11:07;-4.20;99.90
44170;DHT22;29836;52.286;9.576;2023-04-03T04:13:33;-4.20;99.90
44170;DHT22;29836;52.286;9.576;2023-04-03T04:15:58;-4.10;99.90
44170;DHT22;29836;52.286;9.576;2023-04-03T04:18:24;-4.00;99.90
44170;DHT22;29836;52.286;9.576;2023-04-03T04:20:50;-3.50;99.90
44170;DHT22;29836;52.286;9.576;2023-04-03T04:23:16;-3.20;99.90
44170;DHT22;29836;52.286;9.576;2023-04-03T04:25:45;-2.90;99.90
44170;DHT22;29836;52.286;9.576;2023-04-03T04:28:11;-2.80;99.90
44170;DHT22;29836;52.286;9.576;2023-04-03T04:30:36;-2.70;99.90
44170;DHT22;29836;52.286;9.576;2023-04-03T04:33:02;-2.60;99.90
44170;DHT22;29836;52.286;9.576;2023-04-03T04:35:28;-2.60;99.90
44170;DHT22;29836;52.286;9.576;2023-04-03T04:37:53;-2.50;99.90
44170;DHT22;29836;52.286;9.576;2023-04-03T04:40:19;-2.50;99.90
44170;DHT22;29836;52.286;9.576;2023-04-03T04:42:45;-2.50;99.90
44170;DHT22;29836;52.286;9.576;2023-04-03T04:45:10;-2.50;99.90
44170;DHT22;29836;52.286;9.576;2023-04-03T04:47:36;-2.50;99.90
44170;DHT22;29836;52.286;9.576;2023-04-03T04:50:01;-2.50;99.90
44170;DHT22;29836;52.286;9.576;2023-04-03T04:52:27;-2.50;99.90
44170;DHT22;29836;52.286;9.576;2023-04-03T04:54:52;-2.60;99.90
44170;DHT22;29836;52.286;9.576;2023-04-03T04:57:18;-2.70;99.90
44170;DHT22;29836;52.286;9.576;2023-04-03T04:59:43;-2.70;99.90
44170;DHT22;29836;52.286;9.576;2023-04-03T05:02:09;-2.70;99.90
44170;DHT22;29836;52.286;9.576;2023-04-03T05:04:34;-2.70;99.90
44170;DHT22;29836;52.286;9.576;2023-04-03T05:07:00;-2.70;99.90
44170;DHT22;29836;52.286;9.576;2023-04-03T05:09:26;-2.70;99.90
44170;DHT22;29836;52.286;9.576;2023-04-03T05:11:51;-2.50;99.90
44170;DHT22;29836;52.286;9.576;2023-04-03T05:14:17;-2.30;99.90
44170;DHT22;29836;52.286;9.576;2023-04-03T05:16:42;-2.20;99.90
44170;DHT22;29836;52.286;9.576;2023-04-03T05:19:08;-1.90;99.90
44170;DHT22;29836;52.286;9.576;2023-04-03T05:21:33;-1.70;99.90
44170;DHT22;29836;52.286;9.576;2023-04-03T05:23:59;-1.40;99.90
44170;DHT22;29836;52.286;9.576;2023-04-03T05:26:28;-0.90;99.90
44170;DHT22;29836;52.286;9.576;2023-04-03T05:28:54;-0.50;99.90
44170;DHT22;29836;52.286;9.576;2023-04-03T05:31:19;-0.40;99.90
44170;DHT22;29836;52.286;9.576;2023-04-03T05:33:45;-0.60;99.90
44170;DHT22;29836;52.286;9.576;2023-04-03T05:36:12;-0.80;99.90
44170;DHT22;29836;52.286;9.576;2023-04-03T05:38:38;-1.00;99.90
44170;DHT22;29836;52.286;9.576;2023-04-03T05:41:04;-1.10;99.90
44170;DHT22;29836;52.286;9.576;2023-04-03T05:43:29;-1.10;99.90
44170;DHT22;29836;52.286;9.576;2023-04-03T05:45:55;-0.80;99.90
44170;DHT22;29836;52.286;9.576;2023-04-03T05:48:21;-0.40;99.90
44170;DHT22;29836;52.286;9.576;2023-04-03T05:50:47;0.10;99.90
44170;DHT22;29836;52.286;9.576;2023-04-03T05:53:31;0.40;99.90
44170;DHT22;29836;52.286;9.576;2023-04-03T05:55:58;0.60;99.90
44170;DHT22;29836;52.286;9.576;2023-04-03T05:58:23;1.00;99.90
44170;DHT22;29836;52.286;9.576;2023-04-03T06:00:49;1.30;99.90
44170;DHT22;29836;52.286;9.576;2023-04-03T06:03:15;1.30;99.90
44170;DHT22;29836;52.286;9.576;2023-04-03T06:05:41;1.20;99.90
44170;DHT22;29836;52.286;9.576;2023-04-03T06:08:07;1.00;99.90
44170;DHT22;29836;52.286;9.576;2023-04-03T06:10:32;0.80;99.90
44170;DHT22;29836;52.286;9.576;2023-04-03T06:12:58;0.70;99.90
44170;DHT22;29836;52.286;9.576;2023-04-03T06:15:23;0.60;99.90
44170;DHT22;29836;52.286;9.576;2023-04-03T06:17:50;0.50;99.90
44170;DHT22;29836;52.286;9.576;2023-04-03T06:20:16;0.60;99.90
44170;DHT22;29836;52.286;9.576;2023-04-03T06:22:42;0.90;99.90
44170;DHT22;29836;52.286;9.576;2023-04-03T06:25:08;1.50;99.90
44170;DHT22;29836;52.286;9.576;2023-04-03T06:27:34;2.00;99.90
44170;DHT22;29836;52.286;9.576;2023-04-03T06:30:00;2.20;99.90
44170;DHT22;29836;52.286;9.576;2023-04-03T06:32:25;2.20;99.90
44170;DHT22;29836;52.286;9.576;2023-04-03T06:34:51;2.40;99.90
44170;DHT22;29836;52.286;9.576;2023-04-03T06:37:21;2.80;99.90
44170;DHT22;29836;52.286;9.576;2023-04-03T06:39:47;3.40;99.90
44170;DHT22;29836;52.286;9.576;2023-04-03T06:42:13;3.80;99.90
44170;DHT22;29836;52.286;9.576;2023-04-03T06:44:39;4.10;99.90
44170;DHT22;29836;52.286;9.576;2023-04-03T06:47:04;4.30;99.90
44170;DHT22;29836;52.286;9.576;2023-04-03T06:49:31;4.10;99.90
44170;DHT22;29836;52.286;9.576;2023-04-03T06:51:57;4.10;99.90
44170;DHT22;29836;52.286;9.576;2023-04-03T06:54:23;4.20;99.90
44170;DHT22;29836;52.286;9.576;2023-04-03T06:56:48;4.20;99.90
44170;DHT22;29836;52.286;9.576;2023-04-03T06:59:14;4.40;99.90
44170;DHT22;29836;52.286;9.576;2023-04-03T07:01:40;4.70;99.90
44170;DHT22;29836;52.286;9.576;2023-04-03T07:04:07;4.80;99.90
44170;DHT22;29836;52.286;9.576;2023-04-03T07:06:33;5.20;99.90
44170;DHT22;29836;52.286;9.576;2023-04-03T07:09:00;5.30;99.90
44170;DHT22;29836;52.286;9.576;2023-04-03T07:11:26;5.60;99.90
44170;DHT22;29836;52.286;9.576;2023-04-03T07:13:52;5.50;99.90
44170;DHT22;29836;52.286;9.576;2023-04-03T07:16:18;5.60;99.90
44170;DHT22;29836;52.286;9.576;2023-04-03T07:18:44;6.00;99.90
44170;DHT22;29836;52.286;9.576;2023-04-03T07:21:10;6.50;99.90
44170;DHT22;29836;52.286;9.576;2023-04-03T07:23:35;6.90;99.90
44170;DHT22;29836;52.286;9.576;2023-04-03T07:26:01;7.10;99.90
44170;DHT22;29836;52.286;9.576;2023-04-03T07:28:27;7.20;98.70
44170;DHT22;29836;52.286;9.576;2023-04-03T07:30:59;6.80;99.70
44170;DHT22;29836;52.286;9.576;2023-04-03T07:33:25;7.10;99.70
44170;DHT22;29836;52.286;9.576;2023-04-03T07:35:50;7.70;98.20
44170;DHT22;29836;52.286;9.576;2023-04-03T07:38:16;7.50;97.60
44170;DHT22;29836;52.286;9.576;2023-04-03T07:40:49;7.70;99.90
44170;DHT22;29836;52.286;9.576;2023-04-03T07:43:15;7.90;96.30
44170;DHT22;29836;52.286;9.576;2023-04-03T07:45:41;7.40;97.10
44170;DHT22;29836;52.286;9.576;2023-04-03T07:48:06;6.70;98.50
44170;DHT22;29836;52.286;9.576;2023-04-03T07:50:32;5.70;99.90
44170;DHT22;29836;52.286;9.576;2023-04-03T07:52:58;5.10;99.90
44170;DHT22;29836;52.286;9.576;2023-04-03T07:55:24;5.30;99.90
44170;DHT22;29836;52.286;9.576;2023-04-03T07:57:50;5.40;99.90
44170;DHT22;29836;52.286;9.576;2023-04-03T08:00:17;5.70;99.90
44170;DHT22;29836;52.286;9.576;2023-04-03T08:02:43;5.90;99.90
44170;DHT22;29836;52.286;9.576;2023-04-03T08:05:10;5.90;99.70
44170;DHT22;29836;52.286;9.576;2023-04-03T08:07:37;5.50;99.90
44170;DHT22;29836;52.286;9.576;2023-04-03T08:10:03;5.00;99.90
44170;DHT22;29836;52.286;9.576;2023-04-03T08:12:29;5.00;99.90
44170;DHT22;29836;52.286;9.576;2023-04-03T08:14:57;5.00;99.90
44170;DHT22;29836;52.286;9.576;2023-04-03T08:17:22;5.20;99.90
44170;DHT22;29836;52.286;9.576;2023-04-03T08:19:48;5.60;99.90
44170;DHT22;29836;52.286;9.576;2023-04-03T08:22:13;6.10;99.90
44170;DHT22;29836;52.286;9.576;2023-04-03T08:24:39;6.20;99.90
44170;DHT22;29836;52.286;9.576;2023-04-03T08:27:05;6.20;99.90
44170;DHT22;29836;52.286;9.576;2023-04-03T08:29:31;6.80;99.90
44170;DHT22;29836;52.286;9.576;2023-04-03T08:31:56;7.20;99.90
44170;DHT22;29836;52.286;9.576;2023-04-03T08:34:22;7.00;99.90
44170;DHT22;29836;52.286;9.576;2023-04-03T08:36:47;6.70;98.30
44170;DHT22;29836;52.286;9.576;2023-04-03T08:39:13;6.50;99.90
44170;DHT22;29836;52.286;9.576;2023-04-03T08:41:41;6.80;98.90
44170;DHT22;29836;52.286;9.576;2023-04-03T08:44:13;6.80;99.90
44170;DHT22;29836;52.286;9.576;2023-04-03T08:49:48;9.10;96.50
44170;DHT22;29836;52.286;9.576;2023-04-03T08:55:02;8.50;93.00
44170;DHT22;29836;52.286;9.576;2023-04-03T08:57:38;7.80;96.60
44170;DHT22;29836;52.286;9.576;2023-04-03T09:00:18;8.30;92.40
44170;DHT22;29836;52.286;9.576;2023-04-03T09:02:49;6.90;94.90
44170;DHT22;29836;52.286;9.576;2023-04-03T09:05:18;6.10;95.20
44170;DHT22;29836;52.286;9.576;2023-04-03T09:07:51;7.30;92.80
44170;DHT22;29836;52.286;9.576;2023-04-03T09:10:26;8.30;92.00
44170;DHT22;29836;52.286;9.576;2023-04-03T09:13:01;9.20;93.00
44170;DHT22;29836;52.286;9.576;2023-04-03T09:15:28;9.90;87.10
44170;DHT22;29836;52.286;9.576;2023-04-03T09:18:15;10.00;85.10
44170;DHT22;29836;52.286;9.576;2023-04-03T09:21:08;9.70;90.00
44170;DHT22;29836;52.286;9.576;2023-04-03T09:23:41;9.20;85.60
44170;DHT22;29836;52.286;9.576;2023-04-03T09:26:19;9.30;89.30
44170;DHT22;29836;52.286;9.576;2023-04-03T09:28:47;9.60;88.00
44170;DHT22;29836;52.286;9.576;2023-04-03T09:33:47;11.80;82.60
44170;DHT22;29836;52.286;9.576;2023-04-03T09:36:44;12.00;74.50
44170;DHT22;29836;52.286;9.576;2023-04-03T09:39:14;11.70;75.90
44170;DHT22;29836;52.286;9.576;2023-04-03T09:41:40;12.60;72.10
44170;DHT22;29836;52.286;9.576;2023-04-03T09:44:30;11.90;71.10
44170;DHT22;29836;52.286;9.576;2023-04-03T09:46:57;11.60;74.70
44170;DHT22;29836;52.286;9.576;2023-04-03T09:49:22;11.80;71.60
44170;DHT22;29836;52.286;9.576;2023-04-03T09:51:48;11.80;72.90
44170;DHT22;29836;52.286;9.576;2023-04-03T09:57:00;10.30;79.00
44170;DHT22;29836;52.286;9.576;2023-04-03T09:59:26;11.10;73.20
44170;DHT22;29836;52.286;9.576;2023-04-03T10:02:37;10.50;71.40
44170;DHT22;29836;52.286;9.576;2023-04-03T10:05:40;9.50;75.30
44170;DHT22;29836;52.286;9.576;2023-04-03T10:10:48;11.10;78.00
44170;DHT22;29836;52.286;9.576;2023-04-03T10:13:18;11.00;69.50
44170;DHT22;29836;52.286;9.576;2023-04-03T10:15:51;9.40;74.20
44170;DHT22;29836;52.286;9.576;2023-04-03T10:23:48;9.60;74.50
44170;DHT22;29836;52.286;9.576;2023-04-03T10:29:19;9.70;76.20
44170;DHT22;29836;52.286;9.576;2023-04-03T10:34:44;8.70;75.10
44170;DHT22;29836;52.286;9.576;2023-04-03T10:37:27;8.50;75.70
44170;DHT22;29836;52.286;9.576;2023-04-03T10:40:01;7.30;78.70
44170;DHT22;29836;52.286;9.576;2023-04-03T10:42:42;6.80;86.20
44170;DHT22;29836;52.286;9.576;2023-04-03T10:53:56;10.90;72.40
44170;DHT22;29836;52.286;9.576;2023-04-03T10:56:33;12.20;70.50
44170;DHT22;29836;52.286;9.576;2023-04-03T10:59:21;10.70;72.80
44170;DHT22;29836;52.286;9.576;2023-04-03T11:01:52;8.80;72.90
44170;DHT22;29836;52.286;9.576;2023-04-03T11:04:21;8.00;76.20
44170;DHT22;29836;52.286;9.576;2023-04-03T11:07:01;7.50;77.00
44170;DHT22;29836;52.286;9.576;2023-04-03T11:09:32;7.50;83.60
44170;DHT22;29836;52.286;9.576;2023-04-03T11:12:06;8.30;75.30
44170;DHT22;29836;52.286;9.576;2023-04-03T11:14:36;9.70;69.80
44170;DHT22;29836;52.286;9.576;2023-04-03T11:17:19;8.50;72.40
44170;DHT22;29836;52.286;9.576;2023-04-03T11:20:14;7.60;75.20
44170;DHT22;29836;52.286;9.576;2023-04-03T11:22:45;6.90;79.20
44170;DHT22;29836;52.286;9.576;2023-04-03T11:28:01;7.10;77.20
44170;DHT22;29836;52.286;9.576;2023-04-03T11:35:55;7.80;82.40
44170;DHT22;29836;52.286;9.576;2023-04-03T11:38:35;8.00;76.00
44170;DHT22;29836;52.286;9.576;2023-04-03T11:41:03;8.10;81.40
44170;DHT22;29836;52.286;9.576;2023-04-03T11:43:32;8.20;80.80
44170;DHT22;29836;52.286;9.576;2023-04-03T11:45:58;8.10;76.60
44170;DHT22;29836;52.286;9.576;2023-04-03T11:51:00;7.40;80.70
44170;DHT22;29836;52.286;9.576;2023-04-03T11:53:34;7.40;76.20
44170;DHT22;29836;52.286;9.576;2023-04-03T11:58:35;6.80;78.80
44170;DHT22;29836;52.286;9.576;2023-04-03T12:01:10;6.50;81.30
44170;DHT22;29836;52.286;9.576;2023-04-03T12:16:32;6.30;82.50
44170;DHT22;29836;52.286;9.576;2023-04-03T12:29:27;7.10;81.70
44170;DHT22;29836;52.286;9.576;2023-04-03T12:34:38;7.10;79.70
44170;DHT22;29836;52.286;9.576;2023-04-03T12:37:34;7.40;84.90
44170;DHT22;29836;52.286;9.576;2023-04-03T12:40:30;7.70;78.20
44170;DHT22;29836;52.286;9.576;2023-04-03T12:43:12;8.00;80.40
44170;DHT22;29836;52.286;9.576;2023-04-03T12:45:44;7.60;78.30
44170;DHT22;29836;52.286;9.576;2023-04-03T12:48:17;7.40;79.30
44170;DHT22;29836;52.286;9.576;2023-04-03T12:50:46;7.20;79.60
44170;DHT22;29836;52.286;9.576;2023-04-03T12:53:31;7.00;80.00
44170;DHT22;29836;52.286;9.576;2023-04-03T12:56:29;6.90;79.60
44170;DHT22;29836;52.286;9.576;2023-04-03T12:59:14;6.80;77.40
44170;DHT22;29836;52.286;9.576;2023-04-03T13:01:40;6.70;81.70
44170;DHT22;29836;52.286;9.576;2023-04-03T13:04:06;6.80;81.00
44170;DHT22;29836;52.286;9.576;2023-04-03T13:06:39;6.90;79.80
44170;DHT22;29836;52.286;9.576;2023-04-03T13:09:14;7.10;77.30
44170;DHT22;29836;52.286;9.576;2023-04-03T13:11:43;6.90;75.50
44170;DHT22;29836;52.286;9.576;2023-04-03T13:14:24;6.60;81.90
44170;DHT22;29836;52.286;9.576;2023-04-03T13:17:15;6.50;81.70
44170;DHT22;29836;52.286;9.576;2023-04-03T13:19:42;6.80;82.90
44170;DHT22;29836;52.286;9.576;2023-04-03T13:22:24;7.20;85.40
44170;DHT22;29836;52.286;9.576;2023-04-03T13:24:52;7.40;78.90
44170;DHT22;29836;52.286;9.576;2023-04-03T13:27:19;6.90;80.70
44170;DHT22;29836;52.286;9.576;2023-04-03T13:29:53;6.60;78.50
44170;DHT22;29836;52.286;9.576;2023-04-03T13:32:22;6.60;79.20
44170;DHT22;29836;52.286;9.576;2023-04-03T13:34:48;6.70;82.40
44170;DHT22;29836;52.286;9.576;2023-04-03T13:37:22;6.80;82.80
44170;DHT22;29836;52.286;9.576;2023-04-03T13:39:58;6.90;79.10
44170;DHT22;29836;52.286;9.576;2023-04-03T13:42:27;7.20;82.50
44170;DHT22;29836;52.286;9.576;2023-04-03T13:45:22;7.60;80.80
44170;DHT22;29836;52.286;9.576;2023-04-03T13:47:52;7.60;76.30
44170;DHT22;29836;52.286;9.576;2023-04-03T13:50:25;7.40;78.00
44170;DHT22;29836;52.286;9.576;2023-04-03T13:53:00;7.30;78.50
44170;DHT22;29836;52.286;9.576;2023-04-03T13:55:33;6.80;76.30
44170;DHT22;29836;52.286;9.576;2023-04-03T13:58:22;6.40;79.60
44170;DHT22;29836;52.286;9.576;2023-04-03T14:00:52;5.90;80.10
44170;DHT22;29836;52.286;9.576;2023-04-03T14:03:36;5.90;85.40
44170;DHT22;29836;52.286;9.576;2023-04-03T14:06:05;6.30;81.50
44170;DHT22;29836;52.286;9.576;2023-04-03T14:08:30;6.70;80.20
44170;DHT22;29836;52.286;9.576;2023-04-03T14:10:56;7.00;77.10
44170;DHT22;29836;52.286;9.576;2023-04-03T14:13:22;7.50;74.80
44170;DHT22;29836;52.286;9.576;2023-04-03T14:15:48;7.80;76.40
44170;DHT22;29836;52.286;9.576;2023-04-03T14:18:18;7.80;79.60
44170;DHT22;29836;52.286;9.576;2023-04-03T14:20:45;7.80;79.20
44170;DHT22;29836;52.286;9.576;2023-04-03T14:23:10;7.60;74.90
44170;DHT22;29836;52.286;9.576;2023-04-03T14:25:37;7.40;77.40
44170;DHT22;29836;52.286;9.576;2023-04-03T14:28:17;7.30;77.70
44170;DHT22;29836;52.286;9.576;2023-04-03T14:30:45;7.00;82.80
44170;DHT22;29836;52.286;9.576;2023-04-03T14:33:19;6.50;78.90
44170;DHT22;29836;52.286;9.576;2023-04-03T14:35:46;6.20;83.70
44170;DHT22;29836;52.286;9.576;2023-04-03T14:38:23;5.90;82.90
44170;DHT22;29836;52.286;9.576;2023-04-03T14:40:49;5.90;82.70
44170;DHT22;29836;52.286;9.576;2023-04-03T14:43:15;6.20;74.90
44170;DHT22;29836;52.286;9.576;2023-04-03T14:45:41;6.50;79.20
44170;DHT22;29836;52.286;9.576;2023-04-03T14:48:12;6.60;78.80
44170;DHT22;29836;52.286;9.576;2023-04-03T14:50:41;6.70;74.80
44170;DHT22;29836;52.286;9.576;2023-04-03T14:53:07;6.70;77.30
44170;DHT22;29836;52.286;9.576;2023-04-03T14:55:33;6.60;76.60
44170;DHT22;29836;52.286;9.576;2023-04-03T14:57:58;6.60;78.90
44170;DHT22;29836;52.286;9.576;2023-04-03T15:00:24;6.30;75.30
44170;DHT22;29836;52.286;9.576;2023-04-03T15:02:50;6.20;83.20
44170;DHT22;29836;52.286;9.576;2023-04-03T15:05:16;6.40;79.40
44170;DHT22;29836;52.286;9.576;2023-04-03T15:07:54;6.70;79.20
44170;DHT22;29836;52.286;9.576;2023-04-03T15:10:25;7.20;74.10
44170;DHT22;29836;52.286;9.576;2023-04-03T15:12:51;7.40;74.00
44170;DHT22;29836;52.286;9.576;2023-04-03T15:15:19;7.40;76.40
44170;DHT22;29836;52.286;9.576;2023-04-03T15:17:45;7.50;76.00
44170;DHT22;29836;52.286;9.576;2023-04-03T15:20:19;7.80;75.70
44170;DHT22;29836;52.286;9.576;2023-04-03T15:22:45;7.80;73.90
44170;DHT22;29836;52.286;9.576;2023-04-03T15:25:12;7.70;75.00
44170;DHT22;29836;52.286;9.576;2023-04-03T15:27:38;7.80;74.40
44170;DHT22;29836;52.286;9.576;2023-04-03T15:30:05;7.70;75.10
44170;DHT22;29836;52.286;9.576;2023-04-03T15:32:33;8.00;74.00
44170;DHT22;29836;52.286;9.576;2023-04-03T15:34:59;8.20;72.60
44170;DHT22;29836;52.286;9.576;2023-04-03T15:37:25;8.30;74.10
44170;DHT22;29836;52.286;9.576;2023-04-03T15:39:51;8.20;71.60
44170;DHT22;29836;52.286;9.576;2023-04-03T15:42:16;7.80;78.80
44170;DHT22;29836;52.286;9.576;2023-04-03T15:44:42;7.60;76.20
44170;DHT22;29836;52.286;9.576;2023-04-03T15:47:07;7.40;75.60
44170;DHT22;29836;52.286;9.576;2023-04-03T15:49:33;7.30;78.40
44170;DHT22;29836;52.286;9.576;2023-04-03T15:51:59;6.90;79.30
44170;DHT22;29836;52.286;9.576;2023-04-03T15:54:25;6.30;79.70
44170;DHT22;29836;52.286;9.576;2023-04-03T15:56:52;6.10;80.00
44170;DHT22;29836;52.286;9.576;2023-04-03T15:59:18;6.00;81.00
44170;DHT22;29836;52.286;9.576;2023-04-03T16:01:44;5.90;83.60
44170;DHT22;29836;52.286;9.576;2023-04-03T16:04:09;5.80;80.80
44170;DHT22;29836;52.286;9.576;2023-04-03T16:06:36;5.80;82.00
44170;DHT22;29836;52.286;9.576;2023-04-03T16:09:02;5.80;80.90
44170;DHT22;29836;52.286;9.576;2023-04-03T16:11:28;5.80;81.50
44170;DHT22;29836;52.286;9.576;2023-04-03T16:13:54;5.90;79.40
44170;DHT22;29836;52.286;9.576;2023-04-03T16:16:19;6.00;77.30
44170;DHT22;29836;52.286;9.576;2023-04-03T16:18:46;6.10;85.40
44170;DHT22;29836;52.286;9.576;2023-04-03T16:21:12;6.10;83.40
44170;DHT22;29836;52.286;9.576;2023-04-03T16:23:39;6.20;80.00
44170;DHT22;29836;52.286;9.576;2023-04-03T16:26:05;6.00;81.10
44170;DHT22;29836;52.286;9.576;2023-04-03T16:28:30;6.00;81.90
44170;DHT22;29836;52.286;9.576;2023-04-03T16:30:56;6.00;81.00
44170;DHT22;29836;52.286;9.576;2023-04-03T16:33:21;6.00;82.70
44170;DHT22;29836;52.286;9.576;2023-04-03T16:35:48;6.00;82.10
44170;DHT22;29836;52.286;9.576;2023-04-03T16:38:14;5.70;83.70
44170;DHT22;29836;52.286;9.576;2023-04-03T16:40:40;5.30;82.30
44170;DHT22;29836;52.286;9.576;2023-04-03T16:43:06;5.10;86.40
44170;DHT22;29836;52.286;9.576;2023-04-03T16:45:32;4.90;90.50
44170;DHT22;29836;52.286;9.576;2023-04-03T16:47:57;4.70;89.70
44170;DHT22;29836;52.286;9.576;2023-04-03T16:50:23;4.60;90.30
44170;DHT22;29836;52.286;9.576;2023-04-03T16:52:48;4.40;90.80
44170;DHT22;29836;52.286;9.576;2023-04-03T16:55:14;4.30;91.80
44170;DHT22;29836;52.286;9.576;2023-04-03T16:57:39;4.20;93.40
44170;DHT22;29836;52.286;9.576;2023-04-03T17:00:06;4.30;93.00
44170;DHT22;29836;52.286;9.576;2023-04-03T17:02:32;4.40;94.00
44170;DHT22;29836;52.286;9.576;2023-04-03T17:04:58;4.60;92.00
44170;DHT22;29836;52.286;9.576;2023-04-03T17:07:24;4.90;91.60
44170;DHT22;29836;52.286;9.576;2023-04-03T17:09:50;5.10;89.80
44170;DHT22;29836;52.286;9.576;2023-04-03T17:12:17;5.30;86.70